sensor_id;sensor_type;location;lat;lon;timestamp;pressure;altitude;pressure_sealevel;temperature;humidity
5814;BME280;2933;52.302;8.134;2023-05-07T00:02:51;100703.44;;;11.14;100.00
5814;BME280;2933;52.302;8.134;2023-05-07T00:07:54;100711.94;;;11.04;100.00
5814;BME280;2933;52.302;8.134;2023-05-07T00:12:55;100724.78;;;10.92;100.00
5814;BME280;2933;52.302;8.134;2023-05-07T00:17:57;100731.38;;;11.14;100.00
5814;BME280;2933;52.302;8.134;2023-05-07T00:23:01;100724.94;;;11.20;100.00
5814;BME280;2933;52.302;8.134;2023-05-07T00:28:03;100712.63;;;11.22;100.00
5814;BME280;2933;52.302;8.134;2023-05-07T00:33:04;100722.69;;;11.13;100.00
5814;BME280;2933;52.302;8.134;2023-05-07T00:38:07;100724.47;;;11.13;100.00
5814;BME280;2933;52.302;8.134;2023-05-07T00:43:09;100721.84;;;11.13;100.00
5814;BME280;2933;52.302;8.134;2023-05-07T00:48:10;100719.69;;;11.05;100.00
5814;BME280;2933;52.302;8.134;2023-05-07T00:53:13;100728.38;;;11.06;100.00
5814;BME280;2933;52.302;8.134;2023-05-07T00:58:16;100730.69;;;10.96;100.00
5814;BME280;2933;52.302;8.134;2023-05-07T01:03:18;100731.97;;;10.89;100.00
5814;BME280;2933;52.302;8.134;2023-05-07T01:08:22;100732.41;;;10.81;100.00
5814;BME280;2933;52.302;8.134;2023-05-07T01:13:25;100730.94;;;10.91;100.00
5814;BME280;2933;52.302;8.134;2023-05-07T01:18:26;100729.03;;;10.79;100.00
5814;BME280;2933;52.302;8.134;2023-05-07T01:23:32;100731.63;;;10.64;100.00
5814;BME280;2933;52.302;8.134;2023-05-07T01:28:35;100727.00;;;10.84;100.00
5814;BME280;2933;52.302;8.134;2023-05-07T01:33:38;100721.50;;;10.89;100.00
5814;BME280;2933;52.302;8.134;2023-05-07T01:38:43;100715.28;;;10.61;100.00
5814;BME280;2933;52.302;8.134;2023-05-07T01:43:47;100709.97;;;10.62;100.00
5814;BME280;2933;52.302;8.134;2023-05-07T01:48:49;100716.78;;;10.65;100.00
5814;BME280;2933;52.302;8.134;2023-05-07T01:53:53;100704.69;;;10.48;100.00
5814;BME280;2933;52.302;8.134;2023-05-07T01:58:54;100711.56;;;10.65;100.00
5814;BME280;2933;52.302;8.134;2023-05-07T02:03:56;100713.69;;;10.58;100.00
5814;BME280;2933;52.302;8.134;2023-05-07T02:08:59;100721.25;;;10.63;100.00
5814;BME280;2933;52.302;8.134;2023-05-07T02:14:00;100729.28;;;10.60;100.00
5814;BME280;2933;52.302;8.134;2023-05-07T02:19:02;100732.56;;;10.63;100.00
5814;BME280;2933;52.302;8.134;2023-05-07T02:24:05;100728.19;;;10.48;100.00
5814;BME280;2933;52.302;8.134;2023-05-07T02:29:07;100731.56;;;10.50;100.00
5814;BME280;2933;52.302;8.134;2023-05-07T02:34:08;100720.69;;;10.42;100.00
5814;BME280;2933;52.302;8.134;2023-05-07T02:39:11;100713.47;;;10.31;100.00
5814;BME280;2933;52.302;8.134;2023-05-07T02:44:13;100714.03;;;10.20;100.00
5814;BME280;2933;52.302;8.134;2023-05-07T02:49:15;100724.84;;;10.46;100.00
5814;BME280;2933;52.302;8.134;2023-05-07T02:54:17;100721.13;;;10.18;100.00
5814;BME280;2933;52.302;8.134;2023-05-07T02:59:19;100726.59;;;9.97;100.00
5814;BME280;2933;52.302;8.134;2023-05-07T03:04:20;100734.44;;;10.29;100.00
5814;BME280;2933;52.302;8.134;2023-05-07T03:09:23;100734.59;;;10.26;100.00
5814;BME280;2933;52.302;8.134;2023-05-07T03:14:25;100730.63;;;10.19;100.00
5814;BME280;2933;52.302;8.134;2023-05-07T03:19:26;100726.66;;;10.12;100.00
5814;BME280;2933;52.302;8.134;2023-05-07T03:24:29;100724.41;;;10.06;100.00
5814;BME280;2933;52.302;8.134;2023-05-07T03:29:31;100722.31;;;10.12;100.00
5814;BME280;2933;52.302;8.134;2023-05-07T03:34:32;100717.25;;;9.93;100.00
5814;BME280;2933;52.302;8.134;2023-05-07T03:39:35;100714.31;;;9.83;100.00
5814;BME280;2933;52.302;8.134;2023-05-07T03:44:37;100703.94;;;9.82;100.00
5814;BME280;2933;52.302;8.134;2023-05-07T03:49:38;100711.09;;;9.78;100.00
5814;BME280;2933;52.302;8.134;2023-05-07T03:54:41;100721.84;;;9.72;100.00
5814;BME280;2933;52.302;8.134;2023-05-07T03:59:43;100727.50;;;9.80;100.00
5814;BME280;2933;52.302;8.134;2023-05-07T04:04:44;100735.06;;;9.69;100.00
5814;BME280;2933;52.302;8.134;2023-05-07T04:09:47;100734.41;;;9.65;100.00
5814;BME280;2933;52.302;8.134;2023-05-07T04:14:48;100731.97;;;9.62;100.00
5814;BME280;2933;52.302;8.134;2023-05-07T04:19:50;100740.72;;;9.61;100.00
5814;BME280;2933;52.302;8.134;2023-05-07T04:24:53;100749.34;;;9.62;100.00
5814;BME280;2933;52.302;8.134;2023-05-07T04:29:55;100755.50;;;9.61;100.00
5814;BME280;2933;52.302;8.134;2023-05-07T04:34:56;100759.31;;;9.71;100.00
5814;BME280;2933;52.302;8.134;2023-05-07T04:39:59;100761.31;;;9.66;100.00
5814;BME280;2933;52.302;8.134;2023-05-07T04:45:02;100754.03;;;9.73;100.00
5814;BME280;2933;52.302;8.134;2023-05-07T04:50:06;100753.78;;;9.93;100.00
5814;BME280;2933;52.302;8.134;2023-05-07T04:55:10;100760.06;;;9.73;100.00
5814;BME280;2933;52.302;8.134;2023-05-07T05:00:11;100758.72;;;9.82;100.00
5814;BME280;2933;52.302;8.134;2023-05-07T05:05:14;100765.63;;;9.83;100.00
5814;BME280;2933;52.302;8.134;2023-05-07T05:10:17;100763.94;;;9.82;100.00
5814;BME280;2933;52.302;8.134;2023-05-07T05:15:19;100755.38;;;9.80;100.00
5814;BME280;2933;52.302;8.134;2023-05-07T05:20:20;100752.63;;;10.15;100.00
5814;BME280;2933;52.302;8.134;2023-05-07T05:25:23;100748.97;;;9.85;100.00
5814;BME280;2933;52.302;8.134;2023-05-07T05:30:25;100759.84;;;9.94;100.00
5814;BME280;2933;52.302;8.134;2023-05-07T05:35:26;100767.53;;;10.13;100.00
5814;BME280;2933;52.302;8.134;2023-05-07T05:40:29;100773.25;;;10.35;100.00
5814;BME280;2933;52.302;8.134;2023-05-07T05:45:30;100781.53;;;10.44;100.00
5814;BME280;2933;52.302;8.134;2023-05-07T05:50:32;100778.25;;;10.40;100.00
5814;BME280;2933;52.302;8.134;2023-05-07T05:55:37;100777.72;;;10.33;100.00
5814;BME280;2933;52.302;8.134;2023-05-07T06:00:38;100778.41;;;10.53;100.00
5814;BME280;2933;52.302;8.134;2023-05-07T06:05:40;100788.59;;;10.58;100.00
5814;BME280;2933;52.302;8.134;2023-05-07T06:10:43;100789.84;;;10.66;100.00
5814;BME280;2933;52.302;8.134;2023-05-07T06:15:45;100795.06;;;10.66;100.00
5814;BME280;2933;52.302;8.134;2023-05-07T06:20:46;100797.09;;;10.61;100.00
5814;BME280;2933;52.302;8.134;2023-05-07T06:25:49;100799.03;;;10.58;100.00
5814;BME280;2933;52.302;8.134;2023-05-07T06:30:51;100798.88;;;10.61;100.00
5814;BME280;2933;52.302;8.134;2023-05-07T06:35:52;100813.84;;;10.89;100.00
5814;BME280;2933;52.302;8.134;2023-05-07T06:40:55;100814.34;;;10.96;100.00
5814;BME280;2933;52.302;8.134;2023-05-07T06:45:57;100813.97;;;11.02;100.00
5814;BME280;2933;52.302;8.134;2023-05-07T06:50:59;100818.53;;;10.98;100.00
5814;BME280;2933;52.302;8.134;2023-05-07T06:56:01;100817.03;;;10.94;100.00
5814;BME280;2933;52.302;8.134;2023-05-07T07:01:03;100821.59;;;11.21;100.00
5814;BME280;2933;52.302;8.134;2023-05-07T07:06:05;100835.72;;;11.33;100.00
5814;BME280;2933;52.302;8.134;2023-05-07T07:11:08;100828.66;;;11.50;100.00
5814;BME280;2933;52.302;8.134;2023-05-07T07:16:09;100821.94;;;11.45;100.00
5814;BME280;2933;52.302;8.134;2023-05-07T07:21:11;100817.94;;;11.54;100.00
5814;BME280;2933;52.302;8.134;2023-05-07T07:26:14;100821.41;;;11.84;100.00
5814;BME280;2933;52.302;8.134;2023-05-07T07:31:15;100831.53;;;12.19;100.00
5814;BME280;2933;52.302;8.134;2023-05-07T07:36:17;100828.97;;;12.32;100.00
5814;BME280;2933;52.302;8.134;2023-05-07T07:41:19;100825.03;;;12.24;100.00
5814;BME280;2933;52.302;8.134;2023-05-07T07:46:21;100846.19;;;12.21;100.00
5814;BME280;2933;52.302;8.134;2023-05-07T07:51:23;100842.09;;;12.03;100.00
5814;BME280;2933;52.302;8.134;2023-05-07T07:56:25;100849.00;;;12.18;100.00
5814;BME280;2933;52.302;8.134;2023-05-07T08:01:29;100848.94;;;12.20;100.00
5814;BME280;2933;52.302;8.134;2023-05-07T08:06:31;100847.50;;;12.28;100.00
5814;BME280;2933;52.302;8.134;2023-05-07T08:11:33;100838.25;;;12.23;100.00
5814;BME280;2933;52.302;8.134;2023-05-07T08:16:35;100838.13;;;12.24;100.00
5814;BME280;2933;52.302;8.134;2023-05-07T08:21:39;100841.44;;;12.55;100.00
5814;BME280;2933;52.302;8.134;2023-05-07T08:26:42;100849.72;;;12.76;100.00
5814;BME280;2933;52.302;8.134;2023-05-07T08:31:44;100850.22;;;12.69;100.00
5814;BME280;2933;52.302;8.134;2023-05-07T08:36:45;100849.03;;;12.87;100.00
5814;BME280;2933;52.302;8.134;2023-05-07T08:41:52;100847.44;;;12.85;100.00
5814;BME280;2933;52.302;8.134;2023-05-07T08:46:56;100848.09;;;13.29;100.00
5814;BME280;2933;52.302;8.134;2023-05-07T08:51:58;100848.50;;;13.63;100.00
5814;BME280;2933;52.302;8.134;2023-05-07T08:57:01;100855.22;;;13.67;100.00
5814;BME280;2933;52.302;8.134;2023-05-07T09:02:03;100847.41;;;13.39;100.00
5814;BME280;2933;52.302;8.134;2023-05-07T09:07:05;100860.66;;;14.02;100.00
5814;BME280;2933;52.302;8.134;2023-05-07T09:12:08;100858.34;;;13.98;100.00
5814;BME280;2933;52.302;8.134;2023-05-07T09:17:10;100852.25;;;14.10;100.00
5814;BME280;2933;52.302;8.134;2023-05-07T09:22:11;100860.06;;;14.73;100.00
5814;BME280;2933;52.302;8.134;2023-05-07T09:27:14;100861.13;;;14.70;100.00
5814;BME280;2933;52.302;8.134;2023-05-07T09:32:16;100858.34;;;14.85;100.00
5814;BME280;2933;52.302;8.134;2023-05-07T09:37:18;100869.13;;;15.17;100.00
5814;BME280;2933;52.302;8.134;2023-05-07T09:42:24;100870.63;;;15.33;100.00
5814;BME280;2933;52.302;8.134;2023-05-07T09:47:31;100864.28;;;15.00;100.00
5814;BME280;2933;52.302;8.134;2023-05-07T09:52:34;100860.31;;;14.70;100.00
5814;BME280;2933;52.302;8.134;2023-05-07T09:57:38;100866.19;;;14.61;100.00
5814;BME280;2933;52.302;8.134;2023-05-07T10:02:41;100860.22;;;14.96;100.00
5814;BME280;2933;52.302;8.134;2023-05-07T10:07:48;100869.06;;;15.30;100.00
5814;BME280;2933;52.302;8.134;2023-05-07T10:12:52;100869.72;;;15.45;100.00
5814;BME280;2933;52.302;8.134;2023-05-07T10:17:54;100868.84;;;15.45;100.00
5814;BME280;2933;52.302;8.134;2023-05-07T10:22:57;100866.91;;;15.82;100.00
5814;BME280;2933;52.302;8.134;2023-05-07T10:28:05;100871.44;;;15.58;100.00
5814;BME280;2933;52.302;8.134;2023-05-07T10:33:09;100876.53;;;16.06;100.00
5814;BME280;2933;52.302;8.134;2023-05-07T10:38:11;100881.28;;;15.90;100.00
5814;BME280;2933;52.302;8.134;2023-05-07T10:43:14;100885.38;;;16.17;100.00
5814;BME280;2933;52.302;8.134;2023-05-07T10:48:16;100882.38;;;15.87;100.00
5814;BME280;2933;52.302;8.134;2023-05-07T10:53:25;100879.66;;;16.11;100.00
5814;BME280;2933;52.302;8.134;2023-05-07T10:58:30;100875.69;;;16.17;99.15
5814;BME280;2933;52.302;8.134;2023-05-07T11:03:33;100880.34;;;16.47;98.09
5814;BME280;2933;52.302;8.134;2023-05-07T11:08:52;100872.28;;;16.49;97.55
5814;BME280;2933;52.302;8.134;2023-05-07T11:13:56;100870.47;;;16.61;97.31
5814;BME280;2933;52.302;8.134;2023-05-07T11:18:57;100872.53;;;16.57;97.55
5814;BME280;2933;52.302;8.134;2023-05-07T11:23:59;100867.78;;;16.84;96.48
5814;BME280;2933;52.302;8.134;2023-05-07T11:29:02;100872.19;;;16.28;96.45
5814;BME280;2933;52.302;8.134;2023-05-07T11:34:04;100868.81;;;16.37;96.43
5814;BME280;2933;52.302;8.134;2023-05-07T11:39:23;100871.25;;;16.84;95.06
5814;BME280;2933;52.302;8.134;2023-05-07T11:44:42;100873.31;;;17.46;94.71
5814;BME280;2933;52.302;8.134;2023-05-07T11:49:45;100875.94;;;17.24;92.90
5814;BME280;2933;52.302;8.134;2023-05-07T11:54:51;100877.09;;;16.99;93.93
5814;BME280;2933;52.302;8.134;2023-05-07T11:59:54;100865.16;;;17.37;93.05
5814;BME280;2933;52.302;8.134;2023-05-07T12:04:56;100883.28;;;17.63;91.75
5814;BME280;2933;52.302;8.134;2023-05-07T12:09:57;100880.44;;;17.34;94.13
5814;BME280;2933;52.302;8.134;2023-05-07T12:15:00;100873.41;;;17.23;96.80
5814;BME280;2933;52.302;8.134;2023-05-07T12:20:02;100872.47;;;16.80;99.15
5814;BME280;2933;52.302;8.134;2023-05-07T12:25:06;100875.47;;;17.40;98.49
5814;BME280;2933;52.302;8.134;2023-05-07T12:30:12;100872.03;;;17.07;96.88
5814;BME280;2933;52.302;8.134;2023-05-07T12:35:13;100875.34;;;17.21;97.87
5814;BME280;2933;52.302;8.134;2023-05-07T12:40:15;100881.50;;;17.10;97.09
5814;BME280;2933;52.302;8.134;2023-05-07T12:45:18;100863.25;;;17.18;95.75
5814;BME280;2933;52.302;8.134;2023-05-07T12:50:20;100882.69;;;17.38;95.89
5814;BME280;2933;52.302;8.134;2023-05-07T12:55:22;100885.28;;;17.50;96.76
5814;BME280;2933;52.302;8.134;2023-05-07T13:00:35;100879.41;;;17.46;95.08
5814;BME280;2933;52.302;8.134;2023-05-07T13:05:37;100884.31;;;17.72;96.19
5814;BME280;2933;52.302;8.134;2023-05-07T13:10:39;100896.34;;;17.65;93.33
5814;BME280;2933;52.302;8.134;2023-05-07T13:15:42;100888.56;;;17.42;92.97
5814;BME280;2933;52.302;8.134;2023-05-07T13:20:43;100891.94;;;17.96;93.03
5814;BME280;2933;52.302;8.134;2023-05-07T13:25:45;100888.09;;;18.00;89.55
5814;BME280;2933;52.302;8.134;2023-05-07T13:30:48;100888.56;;;18.15;88.83
5814;BME280;2933;52.302;8.134;2023-05-07T13:35:51;100889.88;;;18.00;90.28
5814;BME280;2933;52.302;8.134;2023-05-07T13:40:53;100882.25;;;17.54;91.16
5814;BME280;2933;52.302;8.134;2023-05-07T13:45:56;100879.53;;;17.66;91.04
5814;BME280;2933;52.302;8.134;2023-05-07T13:50:58;100872.78;;;18.04;90.93
5814;BME280;2933;52.302;8.134;2023-05-07T13:55:59;100878.81;;;17.64;89.03
5814;BME280;2933;52.302;8.134;2023-05-07T14:01:02;100883.38;;;17.83;87.37
5814;BME280;2933;52.302;8.134;2023-05-07T14:06:04;100882.25;;;17.97;87.77
5814;BME280;2933;52.302;8.134;2023-05-07T14:11:06;100877.44;;;18.12;86.26
5814;BME280;2933;52.302;8.134;2023-05-07T14:16:09;100900.50;;;18.40;85.70
5814;BME280;2933;52.302;8.134;2023-05-07T14:21:10;100898.47;;;17.71;84.13
5814;BME280;2933;52.302;8.134;2023-05-07T14:26:12;100895.94;;;18.12;84.51
5814;BME280;2933;52.302;8.134;2023-05-07T14:31:15;100894.97;;;18.22;82.40
5814;BME280;2933;52.302;8.134;2023-05-07T14:36:16;100901.66;;;18.17;83.85
5814;BME280;2933;52.302;8.134;2023-05-07T14:41:20;100894.69;;;18.56;82.64
5814;BME280;2933;52.302;8.134;2023-05-07T14:46:23;100888.03;;;18.21;82.54
5814;BME280;2933;52.302;8.134;2023-05-07T14:51:25;100895.59;;;18.05;81.33
5814;BME280;2933;52.302;8.134;2023-05-07T14:56:28;100899.34;;;18.02;83.65
5814;BME280;2933;52.302;8.134;2023-05-07T15:01:31;100893.84;;;17.63;84.99
5814;BME280;2933;52.302;8.134;2023-05-07T15:06:33;100899.19;;;17.73;84.05
5814;BME280;2933;52.302;8.134;2023-05-07T15:11:34;100906.53;;;17.90;84.71
5814;BME280;2933;52.302;8.134;2023-05-07T15:16:37;100902.91;;;17.49;87.09
5814;BME280;2933;52.302;8.134;2023-05-07T15:21:38;100915.03;;;17.52;87.49
5814;BME280;2933;52.302;8.134;2023-05-07T15:26:40;100918.31;;;17.11;88.84
5814;BME280;2933;52.302;8.134;2023-05-07T15:31:43;100908.63;;;17.12;88.49
5814;BME280;2933;52.302;8.134;2023-05-07T15:36:44;100915.91;;;17.20;88.45
5814;BME280;2933;52.302;8.134;2023-05-07T15:41:46;100908.22;;;17.17;87.94
5814;BME280;2933;52.302;8.134;2023-05-07T15:46:49;100910.78;;;17.39;86.94
5814;BME280;2933;52.302;8.134;2023-05-07T15:51:50;100908.16;;;17.39;86.71
5814;BME280;2933;52.302;8.134;2023-05-07T15:56:54;100902.44;;;17.23;88.32
5814;BME280;2933;52.302;8.134;2023-05-07T16:01:56;100918.41;;;17.21;87.75
5814;BME280;2933;52.302;8.134;2023-05-07T16:06:58;100915.56;;;17.13;88.22
5814;BME280;2933;52.302;8.134;2023-05-07T16:11:59;100919.84;;;17.47;88.37
5814;BME280;2933;52.302;8.134;2023-05-07T16:17:02;100908.69;;;16.78;93.52
5814;BME280;2933;52.302;8.134;2023-05-07T16:22:04;100923.78;;;16.99;93.75
5814;BME280;2933;52.302;8.134;2023-05-07T16:27:06;100926.94;;;16.70;93.86
5814;BME280;2933;52.302;8.134;2023-05-07T16:32:09;100917.34;;;16.46;93.38
5814;BME280;2933;52.302;8.134;2023-05-07T16:37:10;100926.47;;;16.08;95.20
5814;BME280;2933;52.302;8.134;2023-05-07T16:42:12;100929.84;;;16.21;95.37
5814;BME280;2933;52.302;8.134;2023-05-07T16:47:15;100926.59;;;16.06;94.22
5814;BME280;2933;52.302;8.134;2023-05-07T16:52:17;100928.91;;;15.75;97.53
5814;BME280;2933;52.302;8.134;2023-05-07T16:57:18;100921.66;;;15.90;97.82
5814;BME280;2933;52.302;8.134;2023-05-07T17:02:21;100918.31;;;15.64;98.72
5814;BME280;2933;52.302;8.134;2023-05-07T17:07:24;100921.47;;;15.58;98.90
5814;BME280;2933;52.302;8.134;2023-05-07T17:12:26;100924.28;;;15.43;98.79
5814;BME280;2933;52.302;8.134;2023-05-07T17:17:29;100902.31;;;15.31;100.00
5814;BME280;2933;52.302;8.134;2023-05-07T17:22:31;100915.88;;;15.14;100.00
5814;BME280;2933;52.302;8.134;2023-05-07T17:27:33;100923.22;;;14.97;100.00
5814;BME280;2933;52.302;8.134;2023-05-07T17:32:36;100935.31;;;14.76;100.00
5814;BME280;2933;52.302;8.134;2023-05-07T17:37:38;100947.03;;;14.83;100.00
5814;BME280;2933;52.302;8.134;2023-05-07T17:42:39;100955.34;;;14.90;100.00
5814;BME280;2933;52.302;8.134;2023-05-07T17:47:44;100946.25;;;14.57;100.00
5814;BME280;2933;52.302;8.134;2023-05-07T17:52:46;100962.00;;;14.57;100.00
5814;BME280;2933;52.302;8.134;2023-05-07T17:57:47;100964.38;;;14.48;100.00
5814;BME280;2933;52.302;8.134;2023-05-07T18:02:51;100968.44;;;14.01;100.00
5814;BME280;2933;52.302;8.134;2023-05-07T18:07:53;100970.44;;;13.84;100.00
5814;BME280;2933;52.302;8.134;2023-05-07T18:12:55;100977.66;;;13.68;100.00
5814;BME280;2933;52.302;8.134;2023-05-07T18:17:58;100978.78;;;13.64;100.00
5814;BME280;2933;52.302;8.134;2023-05-07T18:22:59;100988.06;;;13.69;100.00
5814;BME280;2933;52.302;8.134;2023-05-07T18:28:01;100988.47;;;13.63;100.00
5814;BME280;2933;52.302;8.134;2023-05-07T18:33:05;100996.50;;;13.47;100.00
5814;BME280;2933;52.302;8.134;2023-05-07T18:38:06;101009.09;;;13.55;100.00
5814;BME280;2933;52.302;8.134;2023-05-07T18:43:08;101004.28;;;13.34;100.00
5814;BME280;2933;52.302;8.134;2023-05-07T18:48:11;101011.38;;;13.19;100.00
5814;BME280;2933;52.302;8.134;2023-05-07T18:53:13;101010.00;;;12.99;100.00
5814;BME280;2933;52.302;8.134;2023-05-07T18:58:14;101021.78;;;13.06;100.00
5814;BME280;2933;52.302;8.134;2023-05-07T19:03:20;101019.09;;;12.79;100.00
5814;BME280;2933;52.302;8.134;2023-05-07T19:08:21;101015.63;;;12.79;100.00
5814;BME280;2933;52.302;8.134;2023-05-07T19:13:23;101021.53;;;12.82;100.00
5814;BME280;2933;52.302;8.134;2023-05-07T19:18:27;101033.88;;;12.51;100.00
5814;BME280;2933;52.302;8.134;2023-05-07T19:23:31;101036.81;;;12.61;100.00
5814;BME280;2933;52.302;8.134;2023-05-07T19:28:32;101047.47;;;12.43;100.00
5814;BME280;2933;52.302;8.134;2023-05-07T19:33:35;101049.41;;;12.54;100.00
5814;BME280;2933;52.302;8.134;2023-05-07T19:38:37;101044.53;;;12.48;100.00
5814;BME280;2933;52.302;8.134;2023-05-07T19:43:39;101041.22;;;12.16;100.00
5814;BME280;2933;52.302;8.134;2023-05-07T19:48:43;101015.84;;;12.02;100.00
5814;BME280;2933;52.302;8.134;2023-05-07T19:53:45;101054.00;;;12.06;100.00
5814;BME280;2933;52.302;8.134;2023-05-07T19:58:46;101072.53;;;12.03;100.00
5814;BME280;2933;52.302;8.134;2023-05-07T20:03:49;101073.50;;;12.16;100.00
5814;BME280;2933;52.302;8.134;2023-05-07T20:08:51;101078.66;;;12.18;100.00
5814;BME280;2933;52.302;8.134;2023-05-07T20:13:52;101092.41;;;12.21;100.00
5814;BME280;2933;52.302;8.134;2023-05-07T20:18:55;101097.44;;;11.94;100.00
5814;BME280;2933;52.302;8.134;2023-05-07T20:23:57;101093.31;;;11.90;100.00
5814;BME280;2933;52.302;8.134;2023-05-07T20:28:58;101101.59;;;11.66;100.00
5814;BME280;2933;52.302;8.134;2023-05-07T20:34:01;101101.34;;;11.71;100.00
5814;BME280;2933;52.302;8.134;2023-05-07T20:39:03;101100.06;;;11.78;100.00
5814;BME280;2933;52.302;8.134;2023-05-07T20:44:04;101104.81;;;11.87;100.00
5814;BME280;2933;52.302;8.134;2023-05-07T20:49:07;101103.56;;;11.62;100.00
5814;BME280;2933;52.302;8.134;2023-05-07T20:54:09;101107.00;;;11.47;100.00
5814;BME280;2933;52.302;8.134;2023-05-07T20:59:12;101107.59;;;11.52;100.00
5814;BME280;2933;52.302;8.134;2023-05-07T21:04:15;101107.19;;;11.44;100.00
5814;BME280;2933;52.302;8.134;2023-05-07T21:09:16;101115.19;;;11.57;100.00
5814;BME280;2933;52.302;8.134;2023-05-07T21:14:18;101113.34;;;11.43;100.00
5814;BME280;2933;52.302;8.134;2023-05-07T21:19:21;101116.88;;;11.42;100.00
5814;BME280;2933;52.302;8.134;2023-05-07T21:24:23;101106.72;;;11.20;100.00
5814;BME280;2933;52.302;8.134;2023-05-07T21:29:25;101135.44;;;11.37;100.00
5814;BME280;2933;52.302;8.134;2023-05-07T21:34:28;101111.88;;;11.37;100.00
5814;BME280;2933;52.302;8.134;2023-05-07T21:39:29;101108.84;;;11.13;100.00
5814;BME280;2933;52.302;8.134;2023-05-07T21:44:31;101110.00;;;11.07;100.00
5814;BME280;2933;52.302;8.134;2023-05-07T21:49:34;101119.44;;;11.10;100.00
5814;BME280;2933;52.302;8.134;2023-05-07T21:54:35;101110.31;;;11.01;100.00
5814;BME280;2933;52.302;8.134;2023-05-07T21:59:37;101118.41;;;10.96;100.00
5814;BME280;2933;52.302;8.134;2023-05-07T22:04:40;101094.03;;;10.62;100.00
5814;BME280;2933;52.302;8.134;2023-05-07T22:09:42;101126.69;;;11.05;100.00
5814;BME280;2933;52.302;8.134;2023-05-07T22:14:44;101126.59;;;10.73;100.00
5814;BME280;2933;52.302;8.134;2023-05-07T22:19:47;101121.84;;;10.63;100.00
5814;BME280;2933;52.302;8.134;2023-05-07T22:24:48;101123.22;;;10.71;100.00
5814;BME280;2933;52.302;8.134;2023-05-07T22:29:50;101116.78;;;10.78;100.00
5814;BME280;2933;52.302;8.134;2023-05-07T22:34:53;101126.50;;;10.92;100.00
5814;BME280;2933;52.302;8.134;2023-05-07T22:39:54;101128.28;;;10.74;100.00
5814;BME280;2933;52.302;8.134;2023-05-07T22:44:56;101127.97;;;10.80;100.00
5814;BME280;2933;52.302;8.134;2023-05-07T22:49:59;101119.38;;;10.43;100.00
5814;BME280;2933;52.302;8.134;2023-05-07T22:55:00;101137.78;;;10.22;100.00
5814;BME280;2933;52.302;8.134;2023-05-07T23:00:03;101138.38;;;10.10;100.00
5814;BME280;2933;52.302;8.134;2023-05-07T23:05:06;101126.06;;;9.94;100.00
5814;BME280;2933;52.302;8.134;2023-05-07T23:10:08;101115.91;;;9.88;100.00
5814;BME280;2933;52.302;8.134;2023-05-07T23:15:10;101126.97;;;9.93;100.00
5814;BME280;2933;52.302;8.134;2023-05-07T23:20:13;101135.09;;;10.06;100.00
5814;BME280;2933;52.302;8.134;2023-05-07T23:25:15;101136.00;;;10.05;100.00
5814;BME280;2933;52.302;8.134;2023-05-07T23:30:17;101127.66;;;10.16;100.00
5814;BME280;2933;52.302;8.134;2023-05-07T23:35:20;101126.53;;;9.85;100.00
5814;BME280;2933;52.302;8.134;2023-05-07T23:40:22;101105.66;;;9.85;100.00
5814;BME280;2933;52.302;8.134;2023-05-07T23:45:24;101122.00;;;9.89;100.00
5814;BME280;2933;52.302;8.134;2023-05-07T23:50:27;101123.91;;;9.85;100.00
5814;BME280;2933;52.302;8.134;2023-05-07T23:55:28;101122.69;;;9.92;100.00
